Time;durP1;ratioP1;P1;durP2;ratioP2;P2;SDS_P1;SDS_P2;PMS_P1;PMS_P2;Temp;Humidity;BMP_temperature;BMP_pressure;BME280_temperature;BME280_humidity;BME280_pressure;Samples;Min_cycle;Max_cycle;Signal;HPM_P1;HPM_P2
2022/06/20 00:00:02;;;;;;;;;;;;;;;;;;350004;28;966;-74
2022/06/20 00:00:14;;;;;;;;;;;;;;;;;;350017;28;916;-74
2022/06/20 00:00:24;;;;;;;;;;;;;;;;;;349824;28;1463;-74
2022/06/20 00:00:35;;;;;;;;;;;;;;;;;;349963;28;1209;-74
2022/06/20 00:00:46;;;;;;;;;;;;;;;;;;351442;28;848;-74
2022/06/20 00:00:57;;;;;;;;;;;;;;;;;;351440;28;792;-74
2022/06/20 00:01:08;;;;;;;;;;;;;;;;;;351404;28;951;-74
2022/06/20 00:01:18;;;;;;;;;;;;;;;;;;351384;28;931;-74
2022/06/20 00:01:28;;;;;;;;;;;;;;;;;;351363;28;1118;-74
2022/06/20 00:01:39;;;;;;;;;;;;;;;;;;351388;28;991;-74
2022/06/20 00:01:49;;;;;;;;;;;;;;;;;;351441;28;789;-74
2022/06/20 00:01:59;;;;;;;;;;;;;;;;;;351346;28;924;-74
2022/06/20 00:02:20;;;;;;;;;;;;;;;;;;351420;28;959;-74
2022/06/20 00:02:30;;;;;;;;;;;;;;;;;;351369;28;912;-74
2022/06/20 00:02:42;;;;;;;;;;;;;;;;;;351324;28;817;-74
2022/06/20 00:02:54;;;;;;;;;;;;;;;;;;351299;28;1256;-74
2022/06/20 00:03:05;;;;;;;;;;;;;;;;;;351433;28;927;-74
2022/06/20 00:03:24;;;;;;;;;;;;;;;;;;351408;28;923;-74
2022/06/20 00:03:38;;;;;;;;;;;;;;;;;;351398;28;935;-74
2022/06/20 00:03:49;;;;;;;;;;;;;;;;;;351447;28;861;-74
2022/06/20 00:04:00;;;;;;;;;;;;;;;;;;351411;28;967;-74
2022/06/20 00:04:15;;;;;;;;;;;;;;;;;;351383;28;795;-74
2022/06/20 00:04:26;;;;;;;;;;;;;;;;;;351288;28;1009;-74
2022/06/20 00:04:36;;;;;;;;;;;;;;;;;;351335;28;773;-74
2022/06/20 00:04:48;;;;;;;;;;;;;;;;;;351406;28;923;-74
2022/06/20 00:05:01;;;;;;;;;;;;;;;;;;351313;28;1472;-74
2022/06/20 00:05:14;;;;;;;;;;;;;;;;;;350456;28;1651;-73
2022/06/20 00:05:26;;;;;;;;;;;;;;;;;;351410;28;923;-73
2022/06/20 00:05:36;;;;;;;;;;;;;;;;;;351383;28;982;-74
2022/06/20 00:05:47;;;;;;;;;;;;;;;;;;351387;28;785;-74
2022/06/20 00:05:57;;;;;;;;;;;;;;;;;;351426;28;912;-74
2022/06/20 00:06:14;;;;;;;;;;;;;;;;;;351427;28;789;-74
2022/06/20 00:06:25;;;;;;;;;;;;;;;;;;351386;28;960;-74
2022/06/20 00:06:38;;;;;;;;;;;;;;;;;;351383;28;796;-73
2022/06/20 00:06:48;;;;;;;;;;;;;;;;;;351384;28;928;-73
2022/06/20 00:06:58;;;;;;;;;;;;;;;;;;351435;28;844;-73
2022/06/20 00:07:11;;;;;;;;;;;;;;;;;;351395;28;904;-73
2022/06/20 00:07:21;;;;;;;;;;;;;;;;;;351163;28;1492;-73
2022/06/20 00:07:31;;;;;;;;;;;;;;;;;;350951;28;1448;-73
2022/06/20 00:07:42;;;;;;;;;;;;;;;;;;351300;28;1515;-73
2022/06/20 00:07:52;;;;;;;;;;;;;;;;;;351362;28;1058;-73
2022/06/20 00:08:03;;;;;;;;;;;;;;;;;;351380;28;905;-73
2022/06/20 00:08:13;;;;;;;;;;;;;;;;;;351421;28;994;-73
2022/06/20 00:08:23;;;;;;;;;;;;;;;;;;351382;28;1054;-74
2022/06/20 00:08:33;;;;;;;;;;;;;;;;;;351393;28;908;-74
2022/06/20 00:08:44;;;;;;;;;;;;;;;;;;351382;28;951;-74
2022/06/20 00:08:55;;;;;;;;;;;;;;;;;;351272;28;1016;-73
2022/06/20 00:09:05;;;;;;;;;;;;;;;;;;351401;28;975;-73
2022/06/20 00:09:15;;;;;;;;;;;;;;;;;;351407;28;936;-74
2022/06/20 00:09:25;;;;;;;;;;;;;;;;;;351315;28;855;-73
2022/06/20 00:09:35;;;;;;;;;;;;;;;;;;351361;28;995;-73
2022/06/20 00:09:46;;;;;;;;;;;;;;;;;;351382;28;927;-74
2022/06/20 00:09:56;;;;;;;;;;;;;;;;;;351377;28;1212;-74
2022/06/20 00:10:06;;;;;;;;;;;;;;;;;;351018;28;1491;-73
2022/06/20 00:10:18;;;;;;;;;;;;;;;;;;351327;28;1440;-73
2022/06/20 00:10:29;;;;;;;;;;;;;;;;;;351403;28;998;-73
2022/06/20 00:10:40;;;;;;;;;;;;;;;;;;351387;28;920;-73
2022/06/20 00:10:51;;;;;;;;;;;;;;;;;;351352;28;855;-73
2022/06/20 00:11:01;;;;;;;;;;;;;;;;;;351377;28;1019;-74
2022/06/20 00:11:16;;;;;;;;;;;;;;;;;;351391;28;955;-74
2022/06/20 00:11:38;;;;;;;;;;;;;;;;;;351376;28;844;-74
2022/06/20 00:11:49;;;;;;;;;;;;;;;;;;351425;28;895;-73
2022/06/20 00:11:59;;;;;;;;;;;;;;;;;;351400;28;964;-74
2022/06/20 00:12:14;;;;;;;;;;;;;;;;;;351398;28;940;-74
2022/06/20 00:12:26;;;;;;;;;;;;;;;;;;351453;28;944;-74
2022/06/20 00:12:36;;;;;;;;;;;;;;;;;;351378;28;1010;-74
2022/06/20 00:12:47;;;;;;;;;;;;;;;;;;351341;28;912;-74
2022/06/20 00:12:58;;;;;;;;;;;;;;;;;;351326;28;959;-74
2022/06/20 00:13:10;;;;;;;;;;;;;;;;;;351404;28;1010;-74
2022/06/20 00:13:31;;;;;;;;;;;;;;;;;;351369;28;920;-74
2022/06/20 00:13:44;;;;;;;;;;;;;;;;;;351428;28;839;-74
2022/06/20 00:13:54;;;;;;;;;;;;;;;;;;351381;28;920;-74
2022/06/20 00:14:05;;;;;;;;;;;;;;;;;;351335;28;936;-74
2022/06/20 00:14:17;;;;;;;;;;;;;;;;;;351412;28;943;-74
2022/06/20 00:14:27;;;;;;;;;;;;;;;;;;351406;28;948;-74
2022/06/20 00:14:37;;;;;;;;;;;;;;;;;;351368;28;1066;-73
2022/06/20 00:14:50;;;;;;;;;;;;;;;;;;351314;28;852;-73
2022/06/20 00:15:01;;;;;;;;;;;;;;;;;;351330;28;1321;-73
2022/06/20 00:15:19;;;;;;;;;;;;;;;;;;350160;28;1404;-73
2022/06/20 00:15:34;;;;;;;;;;;;;;;;;;351363;28;1015;-74
2022/06/20 00:15:46;;;;;;;;;;;;;;;;;;351406;28;849;-74
2022/06/20 00:15:56;;;;;;;;;;;;;;;;;;351401;28;982;-74
2022/06/20 00:16:12;;;;;;;;;;;;;;;;;;351407;28;947;-74
2022/06/20 00:16:23;;;;;;;;;;;;;;;;;;351317;28;1038;-74
2022/06/20 00:16:33;;;;;;;;;;;;;;;;;;351399;28;995;-74
2022/06/20 00:16:44;;;;;;;;;;;;;;;;;;351354;28;920;-74
2022/06/20 00:16:54;;;;;;;;;;;;;;;;;;351425;28;852;-74
2022/06/20 00:17:08;;;;;;;;;;;;;;;;;;351357;28;924;-74
2022/06/20 00:17:18;;;;;;;;;;;;;;;;;;351369;28;987;-73
2022/06/20 00:17:29;;;;;;;;;;;;;;;;;;351393;28;931;-73
2022/06/20 00:17:39;;;;;;;;;;;;;;;;;;351429;28;990;-74
2022/06/20 00:17:50;;;;;;;;;;;;;;;;;;351324;28;880;-73
2022/06/20 00:18:01;;;;;;;;;;;;;;;;;;351421;28;853;-73
2022/06/20 00:18:12;;;;;;;;;;;;;;;;;;351403;28;923;-74
2022/06/20 00:18:22;;;;;;;;;;;;;;;;;;351339;28;829;-74
2022/06/20 00:18:32;;;;;;;;;;;;;;;;;;351350;28;923;-74
2022/06/20 00:18:43;;;;;;;;;;;;;;;;;;351415;28;920;-74
2022/06/20 00:18:54;;;;;;;;;;;;;;;;;;351312;28;773;-74
2022/06/20 00:19:04;;;;;;;;;;;;;;;;;;351436;28;841;-74
2022/06/20 00:19:15;;;;;;;;;;;;;;;;;;351356;28;915;-74
2022/06/20 00:19:25;;;;;;;;;;;;;;;;;;351322;28;947;-74
2022/06/20 00:19:35;;;;;;;;;;;;;;;;;;351427;28;777;-74
2022/06/20 00:19:46;;;;;;;;;;;;;;;;;;351366;28;951;-74
2022/06/20 00:19:56;;;;;;;;;;;;;;;;;;351326;28;857;-74
2022/06/20 00:20:09;;;;;;;;;;;;;;;;;;351385;28;978;-74
2022/06/20 00:20:19;;;;;;;;;;;;;;;;;;351329;28;971;-74
2022/06/20 00:20:30;;;;;;;;;;;;;;;;;;351197;28;875;-74
2022/06/20 00:20:40;;;;;;;;;;;;;;;;;;351250;27;967;-74
2022/06/20 00:20:50;;;;;;;;;;;;;;;;;;351323;28;1035;-74
2022/06/20 00:21:01;;;;;;;;;;;;;;;;;;351297;28;980;-74
2022/06/20 00:21:12;;;;;;;;;;;;;;;;;;351417;28;907;-74
2022/06/20 00:21:23;;;;;;;;;;;;;;;;;;351332;28;940;-73
2022/06/20 00:21:33;;;;;;;;;;;;;;;;;;351339;28;916;-73
2022/06/20 00:21:43;;;;;;;;;;;;;;;;;;351393;28;928;-73
2022/06/20 00:21:54;;;;;;;;;;;;;;;;;;351385;28;833;-73
2022/06/20 00:22:04;;;;;;;;;;;;;;;;;;351321;28;904;-73
2022/06/20 00:22:14;;;;;;;;;;;;;;;;;;351422;28;821;-73
2022/06/20 00:22:24;;;;;;;;;;;;;;;;;;351407;28;912;-73
2022/06/20 00:22:34;;;;;;;;;;;;;;;;;;351388;28;908;-74
2022/06/20 00:22:44;;;;;;;;;;;;;;;;;;351352;28;951;-73
2022/06/20 00:22:55;;;;;;;;;;;;;;;;;;351348;28;931;-73
2022/06/20 00:23:06;;;;;;;;;;;;;;;;;;351418;28;813;-74
2022/06/20 00:23:16;;;;;;;;;;;;;;;;;;351408;28;783;-74
2022/06/20 00:23:26;;;;;;;;;;;;;;;;;;351345;28;908;-74
2022/06/20 00:23:36;;;;;;;;;;;;;;;;;;351401;28;868;-74
2022/06/20 00:23:47;;;;;;;;;;;;;;;;;;351342;28;890;-74
2022/06/20 00:23:57;;;;;;;;;;;;;;;;;;351403;28;785;-74
2022/06/20 00:24:08;;;;;;;;;;;;;;;;;;351383;28;994;-74
2022/06/20 00:24:18;;;;;;;;;;;;;;;;;;351347;28;982;-74
2022/06/20 00:24:30;;;;;;;;;;;;;;;;;;351391;28;916;-74
2022/06/20 00:24:40;;;;;;;;;;;;;;;;;;349906;28;1360;-74
2022/06/20 00:24:51;;;;;;;;;;;;;;;;;;351347;28;940;-74
2022/06/20 00:25:01;;;;;;;;;;;;;;;;;;351356;28;1011;-74
2022/06/20 00:25:11;;;;;;;;;;;;;;;;;;351370;28;761;-74
2022/06/20 00:25:22;;;;;;;;;;;;;;;;;;351311;28;967;-73
2022/06/20 00:25:32;;;;;;;;;;;;;;;;;;351315;28;1003;-74
2022/06/20 00:25:42;;;;;;;;;;;;;;;;;;351389;28;947;-74
2022/06/20 00:25:53;;;;;;;;;;;;;;;;;;351348;28;914;-74
2022/06/20 00:26:03;;;;;;;;;;;;;;;;;;351372;28;919;-74
2022/06/20 00:26:14;;;;;;;;;;;;;;;;;;351403;28;1007;-74
2022/06/20 00:26:24;;;;;;;;;;;;;;;;;;351365;28;932;-74
2022/06/20 00:26:35;;;;;;;;;;;;;;;;;;351388;28;963;-74
2022/06/20 00:26:45;;;;;;;;;;;;;;;;;;351354;28;888;-73
2022/06/20 00:26:56;;;;;;;;;;;;;;;;;;351312;28;936;-74
2022/06/20 00:27:06;;;;;;;;;;;;;;;;;;351368;28;1063;-74
2022/06/20 00:27:17;;;;;;;;;;;;;;;;;;351408;28;813;-74
2022/06/20 00:27:27;;;;;;;;;;;;;;;;;;351319;28;916;-74
2022/06/20 00:27:37;;;;;;;;;;;;;;;;;;350482;28;1432;-74
2022/06/20 00:27:48;;;;;;;;;;;;;;;;;;351389;28;980;-74
2022/06/20 00:27:58;;;;;;;;;;;;;;;;;;351364;28;872;-74
2022/06/20 00:28:08;;;;;;;;;;;;;;;;;;351361;28;931;-74
2022/06/20 00:28:19;;;;;;;;;;;;;;;;;;351388;28;984;-74
2022/06/20 00:28:30;;;;;;;;;;;;;;;;;;351366;28;978;-74
2022/06/20 00:28:40;;;;;;;;;;;;;;;;;;351370;28;912;-73
2022/06/20 00:28:50;;;;;;;;;;;;;;;;;;351335;28;907;-73
2022/06/20 00:29:01;;;;;;;;;;;;;;;;;;351367;28;892;-73
2022/06/20 00:29:12;;;;;;;;;;;;;;;;;;351376;28;979;-73
2022/06/20 00:29:22;;;;;;;;;;;;;;;;;;351405;28;920;-73
2022/06/20 00:29:33;;;;;;;;;;;;;;;;;;350785;28;1417;-74
2022/06/20 00:29:43;;;;;;;;;;;;;;;;;;351248;28;983;-73
2022/06/20 00:29:54;;;;;;;;;;;;;;;;;;351392;28;1011;-73
2022/06/20 00:30:05;;;;;;;;;;;;;;;;;;351371;28;856;-74
2022/06/20 00:30:17;;;;;;;;;;;;;;;;;;351238;28;1238;-73
2022/06/20 00:30:27;;;;;;;;;;;;;;;;;;351326;28;1979;-74
2022/06/20 00:30:38;;;;;;;;;;;;;;;;;;351382;28;923;-74
2022/06/20 00:30:48;;;;;;;;;;;;;;;;;;349729;28;1650;-74
2022/06/20 00:31:00;;;;;;;;;;;;;;;;;;349942;28;857;-74
2022/06/20 00:31:11;;;;;;;;;;;;;;;;;;349956;28;948;-74
2022/06/20 00:31:21;;;;;;;;;;;;;;;;;;349989;28;908;-74
2022/06/20 00:31:32;;;;;;;;;;;;;;;;;;349989;28;999;-74
2022/06/20 00:31:42;;;;;;;;;;;;;;;;;;349870;28;786;-73
2022/06/20 00:31:52;;;;;;;;;;;;;;;;;;349939;28;932;-73
2022/06/20 00:32:04;;;;;;;;;;;;;;;;;;349959;28;971;-74
2022/06/20 00:32:14;;;;;;;;;;;;;;;;;;349981;28;912;-74
2022/06/20 00:32:24;;;;;;;;;;;;;;;;;;349924;28;904;-74
2022/06/20 00:32:34;;;;;;;;;;;;;;;;;;349956;28;952;-74
2022/06/20 00:32:44;;;;;;;;;;;;;;;;;;349981;28;912;-74
2022/06/20 00:32:55;;;;;;;;;;;;;;;;;;350019;28;659;-73
2022/06/20 00:33:05;;;;;;;;;;;;;;;;;;349911;28;983;-74
2022/06/20 00:33:15;;;;;;;;;;;;;;;;;;349963;28;995;-74
2022/06/20 00:33:26;;;;;;;;;;;;;;;;;;350006;28;801;-74
2022/06/20 00:33:36;;;;;;;;;;;;;;;;;;349948;28;952;-74
2022/06/20 00:33:46;;;;;;;;;;;;;;;;;;349956;28;999;-74
2022/06/20 00:33:56;;;;;;;;;;;;;;;;;;349924;28;970;-74
2022/06/20 00:34:08;;;;;;;;;;;;;;;;;;349880;28;789;-74
2022/06/20 00:34:18;;;;;;;;;;;;;;;;;;349960;28;967;-74
2022/06/20 00:34:29;;;;;;;;;;;;;;;;;;350011;28;1010;-74
2022/06/20 00:34:39;;;;;;;;;;;;;;;;;;349681;28;1377;-74
2022/06/20 00:34:49;;;;;;;;;;;;;;;;;;350543;28;1366;-74
2022/06/20 00:35:00;;;;;;;;;;;;;;;;;;351348;28;960;-73
2022/06/20 00:35:11;;;;;;;;;;;;;;;;;;351311;28;975;-73
2022/06/20 00:35:21;;;;;;;;;;;;;;;;;;351415;28;825;-73
2022/06/20 00:35:32;;;;;;;;;;;;;;;;;;351373;27;876;-74
2022/06/20 00:35:42;;;;;;;;;;;;;;;;;;351332;28;1070;-73
2022/06/20 00:35:53;;;;;;;;;;;;;;;;;;351295;28;864;-73
2022/06/20 00:36:03;;;;;;;;;;;;;;;;;;351363;27;920;-73
2022/06/20 00:36:14;;;;;;;;;;;;;;;;;;351314;28;1162;-73
2022/06/20 00:36:25;;;;;;;;;;;;;;;;;;351390;28;963;-73
2022/06/20 00:36:35;;;;;;;;;;;;;;;;;;351387;28;939;-73
2022/06/20 00:36:46;;;;;;;;;;;;;;;;;;351326;28;832;-73
2022/06/20 00:36:56;;;;;;;;;;;;;;;;;;351368;28;1002;-74
2022/06/20 00:37:09;;;;;;;;;;;;;;;;;;351400;28;790;-74
2022/06/20 00:37:20;;;;;;;;;;;;;;;;;;351370;28;808;-73
2022/06/20 00:37:30;;;;;;;;;;;;;;;;;;350967;27;1488;-73
2022/06/20 00:37:41;;;;;;;;;;;;;;;;;;351326;28;1479;-73
2022/06/20 00:37:53;;;;;;;;;;;;;;;;;;351360;28;928;-73
2022/06/20 00:38:04;;;;;;;;;;;;;;;;;;351313;28;928;-73
2022/06/20 00:38:17;;;;;;;;;;;;;;;;;;351396;28;833;-73
2022/06/20 00:38:27;;;;;;;;;;;;;;;;;;351382;28;1802;-74
2022/06/20 00:38:38;;;;;;;;;;;;;;;;;;351338;28;979;-73
2022/06/20 00:38:51;;;;;;;;;;;;;;;;;;351363;28;1012;-73
2022/06/20 00:39:01;;;;;;;;;;;;;;;;;;351407;28;860;-74
2022/06/20 00:39:11;;;;;;;;;;;;;;;;;;351368;28;920;-73
2022/06/20 00:39:22;;;;;;;;;;;;;;;;;;351362;28;1014;-73
2022/06/20 00:39:32;;;;;;;;;;;;;;;;;;351312;28;939;-74
2022/06/20 00:39:42;;;;;;;;;;;;;;;;;;351361;28;916;-73
2022/06/20 00:39:53;;;;;;;;;;;;;;;;;;351374;28;995;-73
2022/06/20 00:40:04;;;;;;;;;;;;;;;;;;351385;28;841;-73
2022/06/20 00:40:21;;;;;;;;;;;;;;;;;;351351;28;1035;-73
2022/06/20 00:40:34;;;;;;;;;;;;;;;;;;351380;28;967;-74
2022/06/20 00:40:52;;;;;;;;;;;;;;;;;;351372;28;904;-73
2022/06/20 00:41:09;;;;;;;;;;;;;;;;;;351384;28;1022;-73
2022/06/20 00:41:21;;;;;;;;;;;;;;;;;;351306;28;881;-73
2022/06/20 00:41:32;;;;;;;;;;;;;;;;;;351405;28;970;-73
2022/06/20 00:41:43;;;;;;;;;;;;;;;;;;351362;28;940;-73
2022/06/20 00:41:53;;;;;;;;;;;;;;;;;;351392;28;817;-73
2022/06/20 00:42:04;;;;;;;;;;;;;;;;;;351341;28;920;-73
2022/06/20 00:42:14;;;;;;;;;;;;;;;;;;351341;28;1121;-73
2022/06/20 00:42:25;;;;;;;;;;;;;;;;;;351333;28;980;-73
2022/06/20 00:42:35;;;;;;;;;;;;;;;;;;351413;28;975;-73
2022/06/20 00:42:46;;;;;;;;;;;;;;;;;;351395;28;1659;-73
2022/06/20 00:42:57;;;;;;;;;;;;;;;;;;351291;28;1015;-73
2022/06/20 00:43:09;;;;;;;;;;;;;;;;;;351396;28;790;-73
2022/06/20 00:43:22;;;;;;;;;;;;;;;;;;351303;28;1011;-73
2022/06/20 00:43:35;;;;;;;;;;;;;;;;;;351371;28;1003;-73
2022/06/20 00:43:47;;;;;;;;;;;;;;;;;;351426;28;761;-73
2022/06/20 00:43:57;;;;;;;;;;;;;;;;;;351386;28;887;-74
2022/06/20 00:44:13;;;;;;;;;;;;;;;;;;351306;28;1096;-73
2022/06/20 00:44:26;;;;;;;;;;;;;;;;;;351335;28;990;-73
2022/06/20 00:44:39;;;;;;;;;;;;;;;;;;351331;28;753;-73
2022/06/20 00:44:52;;;;;;;;;;;;;;;;;;350991;28;1513;-73
2022/06/20 00:45:04;;;;;;;;;;;;;;;;;;351393;28;964;-74
2022/06/20 00:45:15;;;;;;;;;;;;;;;;;;351373;28;905;-73
2022/06/20 00:45:27;;;;;;;;;;;;;;;;;;351240;28;971;-73
2022/06/20 00:45:40;;;;;;;;;;;;;;;;;;351356;28;952;-73
2022/06/20 00:45:52;;;;;;;;;;;;;;;;;;351300;28;1007;-73
2022/06/20 00:46:06;;;;;;;;;;;;;;;;;;351372;28;888;-73
2022/06/20 00:46:19;;;;;;;;;;;;;;;;;;351289;28;936;-73
2022/06/20 00:46:32;;;;;;;;;;;;;;;;;;351348;28;903;-73
2022/06/20 00:46:44;;;;;;;;;;;;;;;;;;351323;28;991;-74
2022/06/20 00:46:57;;;;;;;;;;;;;;;;;;351384;28;947;-74
2022/06/20 00:47:10;;;;;;;;;;;;;;;;;;351435;28;793;-73
2022/06/20 00:47:22;;;;;;;;;;;;;;;;;;351289;28;1039;-74
2022/06/20 00:47:34;;;;;;;;;;;;;;;;;;351378;28;995;-73
2022/06/20 00:47:45;;;;;;;;;;;;;;;;;;351377;28;975;-73
2022/06/20 00:48:01;;;;;;;;;;;;;;;;;;351350;28;948;-73
2022/06/20 00:48:16;;;;;;;;;;;;;;;;;;351398;28;844;-73
2022/06/20 00:48:31;;;;;;;;;;;;;;;;;;351293;28;836;-73
2022/06/20 00:48:45;;;;;;;;;;;;;;;;;;351403;28;978;-73
2022/06/20 00:49:10;;;;;;;;;;;;;;;;;;351323;28;1093;-73
2022/06/20 00:49:26;;;;;;;;;;;;;;;;;;351385;28;936;-73
2022/06/20 00:49:49;;;;;;;;;;;;;;;;;;351315;28;782;-73
2022/06/20 00:50:03;;;;;;;;;;;;;;;;;;351316;28;1300;-73
2022/06/20 00:50:26;;;;;;;;;;;;;;;;;;351332;28;936;-73
2022/06/20 00:50:36;;;;;;;;;;;;;;;;;;351319;28;951;-73
2022/06/20 00:50:48;;;;;;;;;;;;;;;;;;351319;28;886;-73
2022/06/20 00:51:02;;;;;;;;;;;;;;;;;;351331;28;1061;-73
2022/06/20 00:51:38;;;;;;;;;;;;;;;;;;351352;28;952;-74
2022/06/20 00:51:52;;;;;;;;;;;;;;;;;;349744;28;1004;-73
2022/06/20 00:52:06;;;;;;;;;;;;;;;;;;349742;28;1024;-73
2022/06/20 00:52:23;;;;;;;;;;;;;;;;;;349766;28;1582;-73
2022/06/20 00:52:36;;;;;;;;;;;;;;;;;;349678;28;909;-73
2022/06/20 00:53:08;;;;;;;;;;;;;;;;;;351325;28;959;-73
2022/06/20 00:53:22;;;;;;;;;;;;;;;;;;351350;28;971;-73
2022/06/20 00:53:37;;;;;;;;;;;;;;;;;;351380;28;908;-73
2022/06/20 00:53:50;;;;;;;;;;;;;;;;;;351377;28;828;-73
2022/06/20 00:54:18;;;;;;;;;;;;;;;;;;351387;28;872;-73
2022/06/20 00:54:29;;;;;;;;;;;;;;;;;;351338;28;955;-73
2022/06/20 00:54:51;;;;;;;;;;;;;;;;;;351127;28;1422;-73
2022/06/20 00:55:04;;;;;;;;;;;;;;;;;;351284;28;1044;-73
2022/06/20 00:55:28;;;;;;;;;;;;;;;;;;350580;28;1412;-73
2022/06/20 00:55:42;;;;;;;;;;;;;;;;;;351365;28;785;-73
2022/06/20 00:56:10;;;;;;;;;;;;;;;;;;351352;28;841;-73
2022/06/20 00:56:20;;;;;;;;;;;;;;;;;;351409;28;916;-73
2022/06/20 00:56:36;;;;;;;;;;;;;;;;;;351373;28;890;-73
2022/06/20 00:56:58;;;;;;;;;;;;;;;;;;351243;28;924;-73
2022/06/20 00:57:20;;;;;;;;;;;;;;;;;;351344;28;967;-73
2022/06/20 00:57:38;;;;;;;;;;;;;;;;;;351389;28;900;-73
2022/06/20 00:57:54;;;;;;;;;;;;;;;;;;351336;28;1059;-73
2022/06/20 00:58:24;;;;;;;;;;;;;;;;;;351290;28;1038;-73
2022/06/20 00:58:40;;;;;;;;;;;;;;;;;;351312;28;884;-73
2022/06/20 00:58:55;;;;;;;;;;;;;;;;;;351302;28;994;-73
2022/06/20 00:59:07;;;;;;;;;;;;;;;;;;351321;28;896;-73
2022/06/20 00:59:22;;;;;;;;;;;;;;;;;;351360;28;987;-73
2022/06/20 00:59:34;;;;;;;;;;;;;;;;;;351353;28;995;-73
2022/06/20 00:59:46;;;;;;;;;;;;;;;;;;351259;28;944;-73
2022/06/20 01:00:17;;;;;;;;;;;;;;;;;;351402;28;817;-73
2022/06/20 01:00:30;;;;;;;;;;;;;;;;;;351177;28;1063;-73
2022/06/20 01:00:41;;;;;;;;;;;;;;;;;;351268;28;1808;-73
2022/06/20 01:00:51;;;;;;;;;;;;;;;;;;351321;28;983;-73
2022/06/20 01:01:01;;;;;;;;;;;;;;;;;;351256;28;1055;-73
2022/06/20 01:01:13;;;;;;;;;;;;;;;;;;351386;28;895;-75
2022/06/20 01:01:28;;;;;;;;;;;;;;;;;;351362;28;836;-74
2022/06/20 01:01:40;;;;;;;;;;;;;;;;;;351279;28;908;-74
2022/06/20 01:01:50;;;;;;;;;;;;;;;;;;351350;28;971;-73
2022/06/20 01:02:03;;;;;;;;;;;;;;;;;;351339;28;948;-73
2022/06/20 01:02:17;;;;;;;;;;;;;;;;;;351281;28;1023;-73
2022/06/20 01:02:31;;;;;;;;;;;;;;;;;;351319;28;1090;-73
2022/06/20 01:02:53;;;;;;;;;;;;;;;;;;351300;28;963;-74
2022/06/20 01:03:15;;;;;;;;;;;;;;;;;;351370;28;822;-73
2022/06/20 01:03:32;;;;;;;;;;;;;;;;;;351323;28;911;-74
2022/06/20 01:03:46;;;;;;;;;;;;;;;;;;351333;28;1007;-73
2022/06/20 01:04:00;;;;;;;;;;;;;;;;;;351295;28;959;-73
2022/06/20 01:04:15;;;;;;;;;;;;;;;;;;351356;28;912;-73
2022/06/20 01:04:30;;;;;;;;;;;;;;;;;;351286;28;1039;-73
2022/06/20 01:04:58;;;;;;;;;;;;;;;;;;351370;28;888;-73
2022/06/20 01:05:15;;;;;;;;;;;;;;;;;;349749;28;1217;-73
2022/06/20 01:05:31;;;;;;;;;;;;;;;;;;349960;28;983;-73
2022/06/20 01:05:53;;;;;;;;;;;;;;;;;;349949;28;995;-73
2022/06/20 01:06:08;;;;;;;;;;;;;;;;;;349887;28;1033;-74
2022/06/20 01:06:28;;;;;;;;;;;;;;;;;;350027;28;772;-73
2022/06/20 01:06:41;;;;;;;;;;;;;;;;;;350025;28;770;-73
2022/06/20 01:06:54;;;;;;;;;;;;;;;;;;349882;28;1019;-74
2022/06/20 01:07:07;;;;;;;;;;;;;;;;;;349865;28;1307;-73
2022/06/20 01:07:27;;;;;;;;;;;;;;;;;;349973;28;956;-74
2022/06/20 01:07:42;;;;;;;;;;;;;;;;;;350202;28;1562;-74
2022/06/20 01:07:58;;;;;;;;;;;;;;;;;;351304;28;936;-74
2022/06/20 01:08:14;;;;;;;;;;;;;;;;;;351368;28;912;-73
2022/06/20 01:08:53;;;;;;;;;;;;;;;;;;351299;28;872;-73
2022/06/20 01:09:06;;;;;;;;;;;;;;;;;;349764;28;861;-73
2022/06/20 01:09:18;;;;;;;;;;;;;;;;;;349738;28;971;-73
2022/06/20 01:09:30;;;;;;;;;;;;;;;;;;350113;28;1122;-73
2022/06/20 01:09:43;;;;;;;;;;;;;;;;;;351280;28;960;-73
2022/06/20 01:09:55;;;;;;;;;;;;;;;;;;351343;28;908;-73
2022/06/20 01:10:05;;;;;;;;;;;;;;;;;;351342;28;941;-74
2022/06/20 01:10:16;;;;;;;;;;;;;;;;;;351328;28;1282;-73
2022/06/20 01:10:27;;;;;;;;;;;;;;;;;;351111;28;1917;-74
2022/06/20 01:10:42;;;;;;;;;;;;;;;;;;351325;28;1038;-73
2022/06/20 01:11:04;;;;;;;;;;;;;;;;;;351298;28;1011;-74
2022/06/20 01:11:22;;;;;;;;;;;;;;;;;;351307;28;1051;-74
2022/06/20 01:11:44;;;;;;;;;;;;;;;;;;351365;28;971;-74
2022/06/20 01:11:56;;;;;;;;;;;;;;;;;;351302;28;923;-73
2022/06/20 01:12:11;;;;;;;;;;;;;;;;;;351373;28;936;-73
2022/06/20 01:12:23;;;;;;;;;;;;;;;;;;351381;28;936;-73
2022/06/20 01:12:49;;;;;;;;;;;;;;;;;;351292;28;967;-74
2022/06/20 01:13:02;;;;;;;;;;;;;;;;;;351231;28;990;-74
2022/06/20 01:13:16;;;;;;;;;;;;;;;;;;351368;28;832;-73
2022/06/20 01:13:26;;;;;;;;;;;;;;;;;;351131;28;1078;-74
2022/06/20 01:13:37;;;;;;;;;;;;;;;;;;351374;28;932;-74
2022/06/20 01:13:47;;;;;;;;;;;;;;;;;;351340;28;920;-74
2022/06/20 01:13:57;;;;;;;;;;;;;;;;;;351307;28;920;-74
2022/06/20 01:14:18;;;;;;;;;;;;;;;;;;351373;28;809;-74
2022/06/20 01:14:28;;;;;;;;;;;;;;;;;;351325;28;939;-73
2022/06/20 01:14:38;;;;;;;;;;;;;;;;;;351322;28;944;-73
2022/06/20 01:14:48;;;;;;;;;;;;;;;;;;350742;28;1444;-74
2022/06/20 01:14:58;;;;;;;;;;;;;;;;;;350763;28;1486;-74
2022/06/20 01:15:16;;;;;;;;;;;;;;;;;;351336;28;951;-74
2022/06/20 01:15:31;;;;;;;;;;;;;;;;;;351254;28;942;-73
2022/06/20 01:15:43;;;;;;;;;;;;;;;;;;351225;28;1246;-73
2022/06/20 01:15:55;;;;;;;;;;;;;;;;;;351358;28;848;-74
2022/06/20 01:16:12;;;;;;;;;;;;;;;;;;351361;28;979;-74
2022/06/20 01:16:24;;;;;;;;;;;;;;;;;;351335;28;866;-74
2022/06/20 01:16:34;;;;;;;;;;;;;;;;;;351321;28;987;-74
2022/06/20 01:16:45;;;;;;;;;;;;;;;;;;351363;28;797;-74
2022/06/20 01:16:58;;;;;;;;;;;;;;;;;;351333;28;1020;-74
2022/06/20 01:17:15;;;;;;;;;;;;;;;;;;351425;28;924;-73
2022/06/20 01:17:29;;;;;;;;;;;;;;;;;;351348;28;920;-73
2022/06/20 01:17:41;;;;;;;;;;;;;;;;;;351346;28;864;-74
2022/06/20 01:17:51;;;;;;;;;;;;;;;;;;351366;28;852;-74
2022/06/20 01:18:02;;;;;;;;;;;;;;;;;;351301;28;1038;-73
2022/06/20 01:18:15;;;;;;;;;;;;;;;;;;351312;28;802;-73
2022/06/20 01:18:28;;;;;;;;;;;;;;;;;;351316;28;1182;-73
2022/06/20 01:18:39;;;;;;;;;;;;;;;;;;351381;28;979;-73
2022/06/20 01:18:50;;;;;;;;;;;;;;;;;;351356;28;914;-73
2022/06/20 01:19:01;;;;;;;;;;;;;;;;;;351314;28;936;-74
2022/06/20 01:19:21;;;;;;;;;;;;;;;;;;351269;28;983;-73
2022/06/20 01:19:51;;;;;;;;;;;;;;;;;;351353;28;868;-74
2022/06/20 01:20:07;;;;;;;;;;;;;;;;;;350747;28;1186;-74
2022/06/20 01:20:21;;;;;;;;;;;;;;;;;;351365;28;990;-74
2022/06/20 01:20:34;;;;;;;;;;;;;;;;;;351351;28;986;-74
2022/06/20 01:20:46;;;;;;;;;;;;;;;;;;351330;28;924;-74
2022/06/20 01:20:57;;;;;;;;;;;;;;;;;;351327;28;904;-73
2022/06/20 01:21:13;;;;;;;;;;;;;;;;;;351339;28;916;-73
2022/06/20 01:21:33;;;;;;;;;;;;;;;;;;351315;28;988;-73
2022/06/20 01:21:43;;;;;;;;;;;;;;;;;;351298;28;1088;-73
2022/06/20 01:21:53;;;;;;;;;;;;;;;;;;351343;28;923;-73
2022/06/20 01:22:08;;;;;;;;;;;;;;;;;;351255;28;1063;-73
2022/06/20 01:22:36;;;;;;;;;;;;;;;;;;351334;28;928;-74
2022/06/20 01:23:14;;;;;;;;;;;;;;;;;;351309;28;900;-73
2022/06/20 01:23:27;;;;;;;;;;;;;;;;;;351360;28;908;-74
2022/06/20 01:23:45;;;;;;;;;;;;;;;;;;351314;28;836;-74
2022/06/20 01:24:07;;;;;;;;;;;;;;;;;;351364;28;928;-73
2022/06/20 01:24:23;;;;;;;;;;;;;;;;;;351367;28;915;-74
2022/06/20 01:24:43;;;;;;;;;;;;;;;;;;351304;28;990;-73
2022/06/20 01:25:12;;;;;;;;;;;;;;;;;;350858;28;1295;-74
2022/06/20 01:25:34;;;;;;;;;;;;;;;;;;349917;28;873;-74
2022/06/20 01:25:52;;;;;;;;;;;;;;;;;;349734;28;1137;-73
2022/06/20 01:26:18;;;;;;;;;;;;;;;;;;349836;28;833;-73
2022/06/20 01:26:51;;;;;;;;;;;;;;;;;;349796;28;944;-73
2022/06/20 01:27:20;;;;;;;;;;;;;;;;;;349602;28;1585;-73
2022/06/20 01:27:41;;;;;;;;;;;;;;;;;;349745;28;1094;-73
2022/06/20 01:27:52;;;;;;;;;;;;;;;;;;349983;28;873;-74
2022/06/20 01:28:06;;;;;;;;;;;;;;;;;;349884;28;916;-74
2022/06/20 01:28:18;;;;;;;;;;;;;;;;;;349869;28;952;-73
2022/06/20 01:28:32;;;;;;;;;;;;;;;;;;349937;28;943;-74
2022/06/20 01:28:43;;;;;;;;;;;;;;;;;;349907;28;999;-74
2022/06/20 01:28:57;;;;;;;;;;;;;;;;;;349923;28;971;-73
2022/06/20 01:29:08;;;;;;;;;;;;;;;;;;349930;28;944;-73
2022/06/20 01:29:19;;;;;;;;;;;;;;;;;;349908;28;995;-74
2022/06/20 01:29:29;;;;;;;;;;;;;;;;;;349934;28;869;-73
2022/06/20 01:29:39;;;;;;;;;;;;;;;;;;349937;28;912;-73
2022/06/20 01:29:50;;;;;;;;;;;;;;;;;;350413;28;1606;-74
2022/06/20 01:30:01;;;;;;;;;;;;;;;;;;351347;28;865;-74
2022/06/20 01:30:11;;;;;;;;;;;;;;;;;;351326;28;928;-73
2022/06/20 01:30:24;;;;;;;;;;;;;;;;;;351240;28;1909;-73
2022/06/20 01:30:37;;;;;;;;;;;;;;;;;;351369;28;892;-74
2022/06/20 01:30:48;;;;;;;;;;;;;;;;;;351345;28;983;-73
2022/06/20 01:30:59;;;;;;;;;;;;;;;;;;351361;28;869;-73
2022/06/20 01:31:10;;;;;;;;;;;;;;;;;;351370;28;1006;-73
2022/06/20 01:31:21;;;;;;;;;;;;;;;;;;351320;28;920;-73
2022/06/20 01:31:34;;;;;;;;;;;;;;;;;;351293;28;979;-73
2022/06/20 01:31:47;;;;;;;;;;;;;;;;;;351355;28;912;-74
2022/06/20 01:31:59;;;;;;;;;;;;;;;;;;351345;28;1111;-73
2022/06/20 01:32:10;;;;;;;;;;;;;;;;;;351273;27;1003;-74
2022/06/20 01:32:20;;;;;;;;;;;;;;;;;;351275;28;928;-74
2022/06/20 01:32:31;;;;;;;;;;;;;;;;;;351351;28;991;-74
2022/06/20 01:32:42;;;;;;;;;;;;;;;;;;351394;28;944;-74
2022/06/20 01:32:52;;;;;;;;;;;;;;;;;;351572;28;990;-74
2022/06/20 01:33:03;;;;;;;;;;;;;;;;;;351613;28;849;-74
2022/06/20 01:33:15;;;;;;;;;;;;;;;;;;351595;28;971;-74